Latest Coastal Weather Observations for Geelong Racecourse

IDV60701

Issued at 8:42 am EDT Wednesday 7 December 2016 (issued every 10 minutes, with the page automatically refreshed every 10 minutes)

About coastal observations | Map of coastal stations | Coastal observations for VIC | Marine services | Other Formats
Station Details ID: 087184 Name: GEELONG RACECOURSE Lat: -38.17 Lon: 144.38 Height: 12.9 m
Data from the previous 72 hours. | See also: Recent months at Geelong Racecourse
Date/Time
EDT
Temp
°C
Wind Pressure Rain since
9am
mm
Weather Cloud Vis
km
Sea
Height
m
Swell
Dir  Spd
kts
Gust
kts
hPa Trend Height
m
Period
s
Dir
07/08:30am 15.3 NNE 5 8 1015.4 - 0.0 - - - - - - -
07/08:00am 13.7 NNW 3 4 1015.5 - 0.0 - - - - - - -
07/07:30am 12.0 NW 3 4 1015.6 - 0.0 - - - - - - -
07/07:00am 10.5 WNW 3 4 1015.4 - 0.0 - - - - - - -
07/06:30am 10.1 NW 4 6 1015.3 - 0.0 - - - - - - -
07/06:00am 8.7 NW 3 4 1015.3 - 0.0 - - - - - - -
07/05:30am 8.6 WNW 3 4 1015.2 - 0.0 - - - - - - -
07/05:00am 9.2 NW 3 4 1014.6 - 0.0 - - - - - - -
07/04:30am 9.7 NW 3 4 1014.4 - 0.0 - - - - - - -
07/04:00am 10.0 NW 2 3 1014.3 - 0.0 - - - - - - -
07/03:30am 9.7 WNW 3 4 1014.6 - 0.0 - - - - - - -
07/03:00am 9.8 WNW 3 4 1014.6 - 0.0 - - - - - - -
07/02:30am 10.0 WNW 2 2 1015.0 - 0.0 - - - - - - -
07/02:00am 9.7 WNW 2 2 1015.2 - 0.0 - - - - - - -
07/01:30am 10.4 CALM 0 0 1015.5 - 0.0 - - - - - - -
07/01:00am 11.3 CALM 0 0 1015.7 - 0.0 - - - - - - -
07/12:30am 11.6 CALM 0 0 1015.8 - 0.0 - - - - - - -
07/12:00am 11.7 CALM 0 0 1016.0 - 0.0 - - - - - - -
 
Date/Time
EDT
Temp
°C
Wind Pressure Rain since
9am
mm
Weather Cloud Vis
km
Sea
Height
m
Swell
Dir  Spd
kts
Gust
kts
hPa Trend Height
m
Period
s
Dir
06/11:30pm 11.8 CALM 0 0 1015.9 - 0.0 - - - - - - -
06/11:00pm 11.9 CALM 0 0 1016.0 - 0.0 - - - - - - -
06/10:30pm 12.1 CALM 0 1 1016.2 - 0.0 - - - - - - -
06/10:00pm 12.7 SSE 2 3 1016.1 - 0.0 - - - - - - -
06/09:30pm 13.0 S 3 5 1015.9 - 0.0 - - - - - - -
06/09:00pm 13.6 S 4 5 1015.6 - 0.0 - - - - - - -
06/08:30pm 14.3 S 6 8 1015.5 - 0.0 - - - - - - -
06/08:00pm 15.3 S 8 11 1015.1 - 0.0 - - - - - - -
06/07:30pm 15.9 S 9 14 1014.9 - 0.0 - - - - - - -
06/07:00pm 16.3 S 12 16 1015.0 - 0.0 - - - - - - -
06/06:30pm 17.1 S 12 17 1014.8 - 0.0 - - - - - - -
06/06:00pm 17.7 S 12 16 1014.4 - 0.0 - - - - - - -
06/05:30pm 17.6 S 12 18 1014.1 - 0.0 - - - - - - -
06/05:00pm 18.1 S 13 20 1013.9 - 0.0 - - - - - - -
06/04:30pm 18.8 S 13 17 1013.8 - 0.0 - - - - - - -
06/04:00pm 19.1 S 10 15 1013.7 - 0.0 - - - - - - -
06/03:30pm 19.2 S 9 15 1013.8 - 0.0 - - - - - - -
06/03:00pm 19.8 SSE 10 15 1014.0 - 0.0 - - - - - - -
06/02:30pm 20.0 S 12 19 1013.9 - 0.0 - - - - - - -
06/02:00pm 19.5 SSE 9 15 1013.8 - 0.0 - - - - - - -
06/01:30pm 20.0 SSW 9 18 1013.6 - 0.0 - - - - - - -
06/01:00pm 20.9 W 8 12 1013.9 - 0.0 - - - - - - -
06/12:30pm 19.2 WSW 7 12 1013.9 - 0.0 - - - - - - -
06/12:00pm 19.1 SW 8 13 1014.2 - 0.0 - - - - - - -
06/11:30am 18.7 WSW 6 10 1014.4 - 0.0 - - - - - - -
06/11:00am 17.2 WSW 3 7 1014.3 - 0.0 - - - - - - -
06/10:30am 16.7 SW 3 6 1014.3 - 0.0 - - - - - - -
06/10:00am 16.0 SSW 3 7 1014.3 - 0.0 - - - - - - -
06/09:30am 15.6 SSW 4 7 1014.8 - 0.0 - - - - - - -
06/09:00am 15.1 SW 5 7 1015.1 - 0.0 - - - - - - -
06/08:30am 14.2 SW 3 5 1014.4 - 0.0 - - - - - - -
06/08:00am 13.7 WSW 2 4 1013.8 - 0.0 - - - - - - -
06/07:30am 13.3 SW 5 8 1014.4 - 0.0 - - - - - - -
06/07:00am 13.3 SW 4 5 1014.1 - 0.0 - - - - - - -
06/06:30am 13.0 SW 5 6 1013.7 - 0.0 - - - - - - -
06/06:00am 13.0 SW 5 7 1013.6 - 0.0 - - - - - - -
06/05:30am 13.1 SW 3 4 1013.0 - 0.0 - - - - - - -
06/05:00am 13.2 SW 3 4 1012.8 - 0.0 - - - - - - -
06/04:30am 13.1 SW 2 3 1012.4 - 0.0 - - - - - - -
06/04:00am 13.2 CALM 0 0 1012.1 - 0.0 - - - - - - -
06/03:30am 13.2 SE 2 3 1011.6 - 0.0 - - - - - - -
06/03:00am 12.9 SE 2 3 1011.8 - 0.0 - - - - - - -
06/02:30am 12.2 SSW 1 1 1012.7 - 0.0 - - - - - - -
06/02:00am 12.4 S 3 4 1012.8 - 0.0 - - - - - - -
06/01:30am 12.9 S 5 8 1013.0 - 0.0 - - - - - - -
06/01:00am 13.8 SSW 5 7 1013.7 - 0.0 - - - - - - -
06/12:30am 13.9 S 3 5 1013.9 - 0.0 - - - - - - -
06/12:00am 13.9 SSE 3 4 1013.9 - 0.0 - - - - - - -
 
Date/Time
EDT
Temp
°C
Wind Pressure Rain since
9am
mm
Weather Cloud Vis
km
Sea
Height
m
Swell
Dir  Spd
kts
Gust
kts
hPa Trend Height
m
Period
s
Dir
05/11:30pm 13.8 SE 3 5 1013.9 - 0.0 - - - - - - -
05/11:00pm 13.8 S 5 6 1014.6 - 0.0 - - - - - - -
05/10:30pm 14.1 SSE 6 9 1014.6 - 0.0 - - - - - - -
05/10:00pm 14.4 S 9 11 1014.9 - 0.0 - - - - - - -
05/09:30pm 14.7 S 7 10 1015.2 - 0.0 - - - - - - -
05/09:00pm 14.7 S 6 7 1014.9 - 0.0 - - - - - - -
05/08:30pm 14.7 S 7 11 1014.1 - 0.0 - - - - - - -
05/08:00pm 15.0 S 8 12 1013.9 - 0.0 - - - - - - -
05/07:30pm 15.3 S 9 13 1014.1 - 0.0 - - - - - - -
05/07:00pm 15.5 S 10 15 1014.0 - 0.0 - - - - - - -
05/06:30pm 15.7 S 13 17 1013.5 - 0.0 - - - - - - -
05/06:00pm 16.1 S 13 17 1013.0 - 0.0 - - - - - - -
05/05:30pm 16.5 S 13 20 1012.9 - 0.0 - - - - - - -
05/05:00pm 17.1 S 14 17 1012.8 - 0.0 - - - - - - -
05/04:30pm 17.4 S 13 18 1012.9 - 0.0 - - - - - - -
05/04:00pm 18.3 S 14 18 1012.7 - 0.0 - - - - - - -
05/03:30pm 19.5 S 11 15 1012.6 - 0.0 - - - - - - -
05/03:00pm 20.5 S 12 17 1011.6 - 0.0 - - - - - - -
05/02:30pm 20.7 SSE 10 16 1011.7 - 0.0 - - - - - - -
05/02:00pm 20.2 S 10 15 1012.0 - 0.0 - - - - - - -
05/01:30pm 21.3 SSE 11 16 1012.1 - 0.0 - - - - - - -
05/01:00pm 21.3 S 9 15 1011.9 - 0.0 - - - - - - -
05/12:30pm 20.4 SSE 7 13 1012.2 - 0.0 - - - - - - -
05/12:00pm 21.8 WSW 6 10 1012.2 - 0.0 - - - - - - -
05/11:30am 21.1 WSW 9 14 1012.2 - 0.0 - - - - - - -
05/11:00am 20.2 WSW 10 15 1012.0 - 0.0 - - - - - - -
05/10:30am 19.8 W 9 15 1012.0 - 0.0 - - - - - - -
05/10:00am 18.6 W 10 16 1011.9 - 0.0 - - - - - - -
05/09:30am 18.3 WSW 11 15 1012.0 - 0.0 - - - - - - -
05/09:00am 17.6 WSW 10 14 1011.9 - 0.0 - - - - - - -
05/08:30am 17.4 WSW 11 17 1011.4 - 0.0 - - - - - - -
05/08:00am 16.9 WSW 11 15 1010.8 - 0.0 - - - - - - -
05/07:30am 16.5 WSW 9 14 1010.1 - 0.0 - - - - - - -
05/07:00am 16.3 W 6 9 1009.6 - 0.0 - - - - - - -
05/06:30am 16.4 W 8 13 1009.0 - 0.0 - - - - - - -
05/06:00am 16.7 WSW 9 15 1008.4 - 0.0 - - - - - - -
05/05:30am 17.0 WSW 14 21 1007.7 - 0.0 - - - - - - -
05/05:00am 17.8 WSW 13 20 1006.8 - 0.0 - - - - - - -
05/04:30am 19.0 WSW 14 22 1005.9 - 0.0 - - - - - - -
05/04:00am 23.5 W 9 19 1004.4 - 0.0 - - - - - - -
05/03:30am 23.9 NNW 11 17 1003.4 - 0.0 - - - - - - -
05/03:00am 24.0 NNW 13 19 1003.0 - 0.0 - - - - - - -
05/02:30am 23.9 NNW 11 17 1002.9 - 0.0 - - - - - - -
05/02:00am 24.0 NNW 12 17 1002.9 - 0.0 - - - - - - -
05/01:30am 24.0 NNW 8 11 1003.1 - 0.0 - - - - - - -
05/01:00am 24.6 NNW 10 16 1003.0 - 0.0 - - - - - - -
05/12:30am 24.4 NNW 6 12 1003.4 - 0.0 - - - - - - -
05/12:00am 22.6 N 5 7 1003.4 - 0.0 - - - - - - -
 
Date/Time
EDT
Temp
°C
Wind Pressure Rain since
9am
mm
Weather Cloud Vis
km
Sea
Height
m
Swell
Dir  Spd
kts
Gust
kts
hPa Trend Height
m
Period
s
Dir
04/11:30pm 21.5 NNE 7 9 1003.6 - 0.0 - - - - - - -
04/11:00pm 21.1 NNE 7 10 1003.9 - 0.0 - - - - - - -
04/10:30pm 21.0 NNE 8 14 1004.2 - 0.0 - - - - - - -
04/10:00pm 20.9 NE 7 11 1004.4 - 0.0 - - - - - - -
04/09:30pm 22.0 NNE 10 14 1004.8 - 0.0 - - - - - - -
04/09:00pm 21.6 NNE 6 9 1005.2 - 0.0 - - - - - - -
04/08:30pm 22.1 NNE 4 8 1006.1 - 0.0 - - - - - - -
04/08:00pm 22.6 NNE 7 9 1005.9 - 0.0 - - - - - - -
04/07:30pm 23.5 N 5 8 1005.7 - 0.0 - - - - - - -
04/07:00pm 23.6 N 3 5 1005.6 - 0.0 - - - - - - -
04/06:30pm 23.7 NW 6 12 1005.6 - 0.0 - - - - - - -
04/06:01pm 25.4 NW 15 25 1006.0 - 0.0 - - - - - - -
04/06:00pm 25.5 NW 16 25 1006.0 - 0.0 - - - - - - -
04/05:49pm 26.3 WNW 15 25 1005.7 - 0.0 - - - - - - -
04/05:30pm 26.9 NW 6 17 1005.3 - 0.0 - - - - - - -
04/05:00pm 28.3 NNE 1 2 1004.2 - 0.0 - - - - - - -
04/04:30pm 28.7 ENE 3 5 1004.4 - 0.0 - - - - - - -
04/04:00pm 27.3 CALM 0 0 1005.0 - 0.0 - - - - - - -
04/03:30pm 25.9 CALM 0 1 1005.3 - 0.0 - - - - - - -
04/03:00pm 25.0 NNE 4 9 1006.1 - 0.0 - - - - - - -
04/02:30pm 26.0 NNE 3 5 1005.9 - 0.0 - - - - - - -
04/02:00pm 25.6 NE 2 3 1006.3 - 0.0 - - - - - - -
04/01:30pm 24.7 NE 3 4 1006.7 - 0.0 - - - - - - -
04/01:00pm 23.9 NE 3 4 1007.3 - 0.0 - - - - - - -
04/12:30pm 23.4 NE 3 5 1007.7 - 0.0 - - - - - - -
04/12:00pm 23.0 E 2 3 1008.1 - 0.0 - - - - - - -
04/11:30am 21.2 NE 4 5 1008.6 - 0.0 - - - - - - -
04/11:00am 20.5 NNE 5 8 1009.1 - 0.0 - - - - - - -
04/10:30am 20.1 NE 6 8 1009.0 - 0.0 - - - - - - -
04/10:00am 19.6 ENE 5 7 1009.5 - 0.0 - - - - - - -
04/09:30am 19.0 ENE 3 5 1009.9 - 0.0 - - - - - - -
04/09:00am 17.8 NE 4 6 1010.2 - 0.0 - - - - - - -

Other Formats:

Comma delimited format used in spreadsheet applications
http://www.bom.gov.au/fwo/IDV60701/IDV60701.94857.axf

JavaScript Object Notation format (JSON) in row-major order
http://www.bom.gov.au/fwo/IDV60701/IDV60701.94857.json